Time;durP1;ratioP1;P1;durP2;ratioP2;P2;SDS_P1;SDS_P2;PMS_P1;PMS_P2;Temp;Humidity;BMP_temperature;BMP_pressure;BME280_temperature;BME280_humidity;BME280_pressure;Samples;Min_cycle;Max_cycle;Signal;HPM_P1;HPM_P2
2022/06/21 00:02:21;;;;;;;2.17;2.08;;;26.60;49.90;;;;;;5086148;28;20094;-65
2022/06/21 00:04:49;;;;;;;2.03;1.90;;;26.60;49.90;;;;;;5084563;28;20428;-65
2022/06/21 00:07:23;;;;;;;2.00;1.90;;;26.60;49.90;;;;;;5085974;28;20048;-65
2022/06/21 00:09:51;;;;;;;2.10;2.00;;;26.60;49.90;;;;;;5085478;28;20412;-65
2022/06/21 00:12:19;;;;;;;3.53;2.33;;;26.60;50.00;;;;;;5089306;28;20104;-65
2022/06/21 00:14:47;;;;;;;1.55;1.50;;;26.60;50.00;;;;;;5105664;28;20062;-64
2022/06/21 00:17:18;;;;;;;2.08;1.60;;;26.60;50.10;;;;;;5105911;28;20508;-64
2022/06/21 00:19:45;;;;;;;1.83;1.73;;;26.50;50.00;;;;;;5107040;28;20140;-64
2022/06/21 00:22:16;;;;;;;2.08;1.75;;;26.60;50.10;;;;;;5109825;28;20044;-65
2022/06/21 00:24:44;;;;;;;2.22;2.13;;;26.60;50.20;;;;;;5109889;28;20096;-64
2022/06/21 00:27:14;;;;;;;2.53;2.33;;;26.60;50.20;;;;;;5109865;28;20081;-65
2022/06/21 00:29:41;;;;;;;;;;;26.50;50.20;;;;;;5109178;28;20074;-65
2022/06/21 00:32:14;;;;;;;1.90;1.80;;;26.50;50.20;;;;;;5110159;28;19981;-65
2022/06/21 00:34:43;;;;;;;3.25;2.20;;;26.50;50.20;;;;;;5109677;28;20112;-64
2022/06/21 00:37:22;;;;;;;2.45;2.25;;;26.50;50.20;;;;;;5109368;28;20047;-65
2022/06/21 00:39:51;;;;;;;2.50;2.10;;;26.50;50.30;;;;;;5109305;28;20083;-64
2022/06/21 00:42:28;;;;;;;2.30;2.10;;;26.50;50.30;;;;;;5109925;28;20040;-64
2022/06/21 00:45:11;;;;;;;1.90;1.80;;;26.50;50.40;;;;;;5109108;28;20294;-65
2022/06/21 00:47:51;;;;;;;4.18;2.38;;;26.50;50.40;;;;;;5107861;28;20124;-64
2022/06/21 00:50:34;;;;;;;3.65;1.92;;;26.50;50.50;;;;;;5097223;28;20304;-64
2022/06/21 00:53:23;;;;;;;1.95;1.85;;;26.50;50.50;;;;;;5109505;28;20044;-64
2022/06/21 00:56:14;;;;;;;1.55;1.55;;;26.50;50.60;;;;;;5089181;28;20044;-65
2022/06/21 00:58:41;;;;;;;2.47;2.30;;;26.50;50.60;;;;;;5088426;28;20172;-65
2022/06/21 01:01:30;;;;;;;1.88;1.77;;;26.50;50.70;;;;;;5088379;28;20517;-65
2022/06/21 01:04:10;;;;;;;2.03;1.92;;;26.40;50.60;;;;;;5088945;28;20065;-65
2022/06/21 01:06:43;;;;;;;1.80;1.70;;;26.40;50.60;;;;;;5099214;28;20039;-64
2022/06/21 01:09:22;;;;;;;2.05;1.88;;;26.40;50.60;;;;;;5107610;28;20535;-65
2022/06/21 01:12:01;;;;;;;2.38;2.17;;;26.40;50.60;;;;;;5108802;28;20363;-64
2022/06/21 01:14:31;;;;;;;1.90;1.80;;;26.40;50.60;;;;;;5108781;28;20468;-64
2022/06/21 01:16:59;;;;;;;2.05;1.92;;;26.40;50.60;;;;;;5107276;28;20051;-65
2022/06/21 01:19:40;;;;;;;2.20;1.88;;;26.40;50.60;;;;;;5108114;28;20559;-64
2022/06/21 01:22:38;;;;;;;2.05;1.95;;;26.40;50.60;;;;;;5108524;28;20097;-65
2022/06/21 01:25:32;;;;;;;2.00;1.90;;;26.40;50.60;;;;;;5108556;28;20051;-64
2022/06/21 01:28:00;;;;;;;2.05;1.95;;;26.40;50.60;;;;;;5107504;28;20040;-65
2022/06/21 01:30:28;;;;;;;2.30;2.10;;;26.40;50.60;;;;;;5108095;28;20047;-64
2022/06/21 01:33:00;;;;;;;2.63;2.35;;;26.40;50.60;;;;;;5107918;28;20051;-65
2022/06/21 01:35:51;;;;;;;2.08;1.98;;;26.40;50.60;;;;;;5108268;28;20043;-65
2022/06/21 01:38:23;;;;;;;2.00;1.90;;;26.40;50.60;;;;;;5109072;28;20084;-65
2022/06/21 01:41:05;;;;;;;1.80;1.70;;;26.40;50.70;;;;;;5108182;28;20373;-64
2022/06/21 01:43:34;;;;;;;2.00;1.88;;;26.30;50.60;;;;;;5094756;27;20451;-64
2022/06/21 01:46:05;;;;;;;2.05;1.95;;;26.30;50.70;;;;;;5087748;28;20466;-64
2022/06/21 01:48:40;;;;;;;2.28;2.08;;;26.30;50.70;;;;;;5087960;28;20048;-65
2022/06/21 01:51:13;;;;;;;4.97;2.22;;;26.30;50.70;;;;;;5088038;28;20055;-65
2022/06/21 01:53:41;;;;;;;1.65;1.55;;;26.30;51.20;;;;;;5086659;28;20489;-65
2022/06/21 01:56:21;;;;;;;2.50;2.30;;;26.30;50.70;;;;;;5088132;28;20082;-65
2022/06/21 01:59:03;;;;;;;2.10;2.00;;;26.30;50.70;;;;;;5087975;28;20202;-64
2022/06/21 02:01:48;;;;;;;2.20;1.95;;;26.30;50.80;;;;;;5087433;28;20401;-65
2022/06/21 02:04:20;;;;;;;1.80;1.70;;;26.30;50.70;;;;;;5087652;28;20047;-65
2022/06/21 02:06:50;;;;;;;1.90;1.80;;;26.30;50.70;;;;;;5086566;28;20097;-65
2022/06/21 02:09:25;;;;;;;2.42;2.15;;;26.30;50.80;;;;;;5087365;28;20048;-66
2022/06/21 02:12:04;;;;;;;2.15;1.63;;;26.20;50.70;;;;;;5087240;28;20461;-65
2022/06/21 02:14:38;;;;;;;2.10;2.00;;;26.20;50.70;;;;;;5087196;28;20040;-65
2022/06/21 02:17:22;;;;;;;1.70;1.60;;;26.20;50.80;;;;;;5087517;28;20436;-64
2022/06/21 02:20:08;;;;;;;1.77;1.67;;;26.20;50.80;;;;;;5087134;28;20098;-65
2022/06/21 02:22:35;;;;;;;1.90;1.80;;;26.20;50.80;;;;;;5085965;28;20181;-65
2022/06/21 02:25:04;;;;;;;1.98;1.88;;;26.20;50.80;;;;;;5087028;28;20044;-64
2022/06/21 02:27:34;;;;;;;2.25;2.05;;;26.20;50.80;;;;;;5087102;28;20113;-65
2022/06/21 02:30:06;;;;;;;1.75;1.65;;;26.20;50.90;;;;;;5087033;28;20040;-65
2022/06/21 02:32:40;;;;;;;2.25;2.05;;;26.20;50.90;;;;;;5086981;28;20409;-65
2022/06/21 02:35:18;;;;;;;1.65;1.58;;;26.20;50.90;;;;;;5087368;28;20052;-65
2022/06/21 02:37:47;;;;;;;1.90;1.77;;;26.20;50.90;;;;;;5068401;28;20508;-65
2022/06/21 02:40:41;;;;;;;2.33;2.13;;;26.20;51.00;;;;;;5087083;28;20087;-65
2022/06/21 02:43:14;;;;;;;2.15;1.80;;;26.20;51.00;;;;;;5096759;28;20474;-65
2022/06/21 02:45:59;;;;;;;2.13;1.98;;;26.20;51.10;;;;;;5106065;28;20194;-64
2022/06/21 02:48:35;;;;;;;2.13;2.00;;;26.10;51.00;;;;;;5105510;28;20044;-65
2022/06/21 02:51:06;;;;;;;2.22;1.98;;;26.20;51.10;;;;;;5106952;28;20108;-65
2022/06/21 02:53:40;;;;;;;2.15;2.00;;;26.20;51.20;;;;;;5106953;28;20044;-65
2022/06/21 02:56:18;;;;;;;2.00;1.90;;;26.10;51.10;;;;;;5107225;28;20051;-64
2022/06/21 02:58:51;;;;;;;2.58;2.35;;;26.20;51.20;;;;;;5106590;28;20051;-65
2022/06/21 03:01:24;;;;;;;2.83;2.63;;;26.20;51.20;;;;;;5106011;28;20096;-65
2022/06/21 03:03:51;;;;;;;2.13;2.03;;;26.10;51.20;;;;;;5106646;28;20097;-65
2022/06/21 03:06:21;;;;;;;2.97;1.90;;;26.10;51.20;;;;;;5105794;28;20120;-65
2022/06/21 03:09:06;;;;;;;1.73;1.63;;;26.10;51.20;;;;;;5107070;28;20124;-65
2022/06/21 03:11:46;;;;;;;2.10;1.95;;;26.10;51.20;;;;;;5106601;28;20054;-65
2022/06/21 03:14:15;;;;;;;;;;;26.10;51.40;;;;;;5105944;28;20047;-64
2022/06/21 03:16:44;;;;;;;1.92;1.80;;;26.10;51.30;;;;;;5106153;28;19973;-64
2022/06/21 03:19:29;;;;;;;2.25;1.98;;;26.10;51.20;;;;;;5106381;28;20086;-64
2022/06/21 03:21:57;;;;;;;2.50;2.30;;;26.10;51.20;;;;;;5106430;28;20085;-65
2022/06/21 03:24:26;;;;;;;2.70;1.73;;;26.10;51.20;;;;;;5106704;28;20036;-65
2022/06/21 03:27:03;;;;;;;2.07;1.90;;;26.20;51.30;;;;;;5098973;28;20111;-64
2022/06/21 03:29:31;;;;;;;2.40;2.20;;;26.20;51.80;;;;;;5097069;28;20454;-65
2022/06/21 03:32:01;;;;;;;2.28;1.83;;;26.20;51.30;;;;;;5090186;28;20109;-65
2022/06/21 03:34:32;;;;;;;1.90;1.80;;;26.20;51.30;;;;;;5106624;28;20059;-65
2022/06/21 03:37:00;;;;;;;2.40;2.03;;;26.20;51.30;;;;;;5106207;28;20051;-64
2022/06/21 03:42:23;;;;;;;2.10;1.85;;;26.20;51.20;;;;;;5092087;28;20557;-64
2022/06/21 03:45:01;;;;;;;4.65;2.20;;;26.20;51.10;;;;;;5094524;28;20081;-64
2022/06/21 03:47:37;;;;;;;2.65;2.45;;;26.20;51.10;;;;;;5096893;28;20044;-64
2022/06/21 03:50:10;;;;;;;2.25;2.15;;;26.30;51.10;;;;;;5086272;28;20519;-64
2022/06/21 03:52:54;;;;;;;3.42;2.00;;;26.30;51.00;;;;;;5097759;28;20073;-64
2022/06/21 03:55:54;;;;;;;2.60;2.13;;;26.40;51.00;;;;;;5091507;28;20035;-64
2022/06/21 03:58:46;;;;;;;2.22;2.03;;;26.30;50.90;;;;;;5109169;28;20093;-64
2022/06/21 04:01:41;;;;;;;3.42;2.10;;;26.40;50.90;;;;;;5110793;28;20074;-64
2022/06/21 04:04:36;;;;;;;2.30;2.03;;;26.50;50.90;;;;;;5109412;28;20048;-64
2022/06/21 04:07:31;;;;;;;2.33;2.22;;;26.40;50.70;;;;;;5109638;28;20043;-64
2022/06/21 04:10:09;;;;;;;2.05;1.95;;;26.50;50.80;;;;;;5101387;28;20097;-64
2022/06/21 04:12:54;;;;;;;3.03;2.80;;;26.50;51.20;;;;;;5088055;28;20040;-64
2022/06/21 04:15:41;;;;;;;3.00;2.30;;;26.50;50.70;;;;;;5107196;28;20089;-64
2022/06/21 04:18:21;;;;;;;3.42;1.95;;;26.60;50.70;;;;;;5109881;27;20093;-63
2022/06/21 04:21:15;;;;;;;2.17;2.05;;;26.60;50.60;;;;;;5109848;28;20261;-65
2022/06/21 04:24:05;;;;;;;3.55;2.35;;;26.60;50.60;;;;;;5109749;28;20055;-65
2022/06/21 04:26:41;;;;;;;2.33;2.15;;;26.60;50.50;;;;;;5103060;28;20035;-64
2022/06/21 04:29:16;;;;;;;5.47;2.70;;;26.70;50.60;;;;;;5109379;28;20048;-63
2022/06/21 04:31:49;;;;;;;2.63;2.45;;;26.70;50.50;;;;;;5108813;28;20047;-64
2022/06/21 04:34:24;;;;;;;6.43;2.55;;;26.70;50.40;;;;;;5086660;28;20035;-64
2022/06/21 04:37:07;;;;;;;3.85;2.42;;;26.80;50.40;;;;;;5086325;28;20460;-64
2022/06/21 04:39:41;;;;;;;2.95;2.38;;;26.80;50.40;;;;;;5096179;28;20048;-64
2022/06/21 04:42:20;;;;;;;2.53;2.42;;;26.80;50.30;;;;;;5088879;28;20048;-63
2022/06/21 04:45:18;;;;;;;3.17;2.17;;;26.80;50.30;;;;;;5098785;28;20075;-64
2022/06/21 04:48:19;;;;;;;2.15;2.05;;;26.80;50.20;;;;;;5099165;28;20089;-64
2022/06/21 04:51:03;;;;;;;3.67;2.00;;;26.80;50.10;;;;;;5077245;28;20043;-64
2022/06/21 04:53:46;;;;;;;1.75;1.65;;;26.90;50.10;;;;;;5094680;28;20099;-63
2022/06/21 04:56:42;;;;;;;3.65;2.30;;;26.90;50.00;;;;;;5092786;28;20460;-64
2022/06/21 04:59:30;;;;;;;3.53;2.00;;;26.90;50.00;;;;;;5104506;28;20112;-63
2022/06/21 05:01:58;;;;;;;2.25;2.08;;;26.90;49.80;;;;;;5090604;28;20055;-64
2022/06/21 05:04:33;;;;;;;2.60;2.42;;;27.00;49.90;;;;;;5093269;28;20044;-64
2022/06/21 05:07:04;;;;;;;2.75;2.25;;;27.00;49.90;;;;;;5101360;28;20044;-64
2022/06/21 05:09:33;;;;;;;3.25;2.25;;;27.00;49.90;;;;;;5093353;28;20040;-63
2022/06/21 05:12:23;;;;;;;5.10;4.05;;;26.90;49.80;;;;;;5094005;28;20138;-59
2022/06/21 05:15:00;;;;;;;11.48;4.70;;;26.80;51.60;;;;;;5096449;28;20043;-61
2022/06/21 05:17:28;;;;;;;8.05;5.43;;;26.50;53.40;;;;;;5094446;28;20071;-62
2022/06/21 05:20:01;;;;;;;6.97;5.07;;;26.10;54.80;;;;;;5094185;28;20059;-62
2022/06/21 05:22:35;;;;;;;8.23;5.18;;;25.70;55.70;;;;;;5099193;27;20495;-61
2022/06/21 05:25:13;;;;;;;14.63;6.38;;;25.40;55.80;;;;;;5091858;27;20097;-63
2022/06/21 05:27:46;;;;;;;15.07;6.75;;;24.90;55.60;;;;;;5090425;28;20044;-70
2022/06/21 05:30:26;;;;;;;8.60;6.70;;;24.50;57.20;;;;;;5094114;28;20440;-66
2022/06/21 05:32:58;;;;;;;12.48;6.05;;;24.10;56.50;;;;;;5085233;28;20075;-64
2022/06/21 05:35:27;;;;;;;9.73;5.85;;;23.60;56.80;;;;;;5087551;27;20044;-67
2022/06/21 05:38:09;;;;;;;9.07;6.43;;;23.30;56.20;;;;;;5087166;28;20740;-65
2022/06/21 05:40:56;;;;;;;12.00;6.28;;;22.90;56.90;;;;;;5087717;28;20104;-68
2022/06/21 05:43:46;;;;;;;12.13;6.18;;;22.50;56.10;;;;;;5089683;28;20090;-64
2022/06/21 05:46:19;;;;;;;10.48;7.45;;;22.20;57.10;;;;;;5084899;28;20048;-67
2022/06/21 05:48:46;;;;;;;14.05;7.25;;;21.90;59.50;;;;;;5092779;28;20061;-67
2022/06/21 05:51:21;;;;;;;10.25;6.82;;;21.70;58.70;;;;;;5085087;28;20054;-64
2022/06/21 05:53:53;;;;;;;17.38;8.20;;;21.60;59.50;;;;;;5093604;27;20048;-63
2022/06/21 05:56:22;;;;;;;8.98;6.82;;;21.40;63.00;;;;;;5091547;27;20101;-64
2022/06/21 05:59:02;;;;;;;7.63;5.30;;;21.30;59.70;;;;;;5090485;27;20094;-64
2022/06/21 06:02:09;;;;;;;7.57;5.53;;;21.20;57.90;;;;;;5093135;27;20300;-64
2022/06/21 06:04:58;;;;;;;8.00;5.32;;;21.10;58.20;;;;;;5089550;28;20044;-64
2022/06/21 06:07:37;;;;;;;6.95;4.45;;;20.90;58.20;;;;;;5084666;28;20485;-63
2022/06/21 06:10:06;;;;;;;7.72;4.40;;;20.80;58.50;;;;;;5092252;28;20040;-64
2022/06/21 06:12:38;;;;;;;7.88;5.05;;;20.80;58.50;;;;;;5090360;28;20040;-64
2022/06/21 06:15:19;;;;;;;6.30;4.20;;;20.70;59.00;;;;;;5087900;28;20100;-64
2022/06/21 06:17:59;;;;;;;6.38;4.45;;;20.60;59.20;;;;;;5089065;28;20043;-64
2022/06/21 06:20:53;;;;;;;4.07;3.67;;;20.50;59.50;;;;;;5094286;27;20050;-64
2022/06/21 06:23:43;;;;;;;5.00;4.57;;;20.50;59.50;;;;;;5094939;28;20052;-64
2022/06/21 06:26:19;;;;;;;;;;;20.50;59.40;;;;;;5088568;28;20124;-62
2022/06/21 06:29:16;;;;;;;5.70;3.85;;;20.40;60.00;;;;;;5088138;28;20392;-63
2022/06/21 06:32:04;;;;;;;4.18;3.63;;;20.30;60.10;;;;;;5089605;28;20491;-63
2022/06/21 06:34:35;;;;;;;4.30;3.65;;;20.40;60.60;;;;;;5093630;28;20050;-64
2022/06/21 06:37:08;;;;;;;3.67;3.30;;;20.40;60.80;;;;;;5099540;28;20052;-62
2022/06/21 06:39:37;;;;;;;6.32;3.58;;;20.40;61.30;;;;;;5094753;28;20524;-63
2022/06/21 06:42:14;;;;;;;4.70;2.90;;;20.30;61.60;;;;;;5089111;28;20044;-62
2022/06/21 06:44:49;;;;;;;5.65;3.40;;;20.30;61.60;;;;;;5089052;28;20125;-63
2022/06/21 06:47:37;;;;;;;4.03;3.38;;;20.30;62.40;;;;;;5098216;27;20089;-63
2022/06/21 06:50:26;;;;;;;5.00;3.55;;;20.40;62.00;;;;;;5088820;28;20047;-62
2022/06/21 06:53:01;;;;;;;4.30;3.10;;;20.50;61.60;;;;;;5090150;28;20146;-63
2022/06/21 06:55:47;;;;;;;3.33;3.03;;;20.50;61.50;;;;;;5076866;28;20044;-63
2022/06/21 06:58:48;;;;;;;3.08;2.78;;;20.60;61.10;;;;;;5087223;28;20048;-63
2022/06/21 07:01:24;;;;;;;3.10;2.75;;;20.60;61.00;;;;;;5086161;28;20629;-63
2022/06/21 07:03:58;;;;;;;2.83;2.63;;;20.60;61.20;;;;;;5087239;28;20051;-62
2022/06/21 07:06:45;;;;;;;3.22;2.92;;;20.60;61.00;;;;;;5092371;27;20135;-62
2022/06/21 07:09:27;;;;;;;4.70;2.92;;;20.60;61.30;;;;;;5087165;28;20052;-62
2022/06/21 07:12:06;;;;;;;2.85;2.65;;;20.60;61.30;;;;;;5087405;27;20036;-62
2022/06/21 07:14:35;;;;;;;2.80;2.50;;;20.60;61.10;;;;;;5083897;28;20105;-62
2022/06/21 07:17:18;;;;;;;3.10;2.58;;;20.60;60.90;;;;;;5082534;28;20068;-62
2022/06/21 07:19:47;;;;;;;3.00;2.75;;;20.60;60.90;;;;;;5085368;28;20070;-62
2022/06/21 07:22:18;;;;;;;2.70;2.50;;;20.60;60.80;;;;;;5083875;28;20060;-62
2022/06/21 07:25:00;;;;;;;2.78;2.58;;;20.60;61.10;;;;;;5088629;28;20108;-63
2022/06/21 07:27:31;;;;;;;4.30;2.60;;;20.60;61.10;;;;;;5093719;28;20520;-62
2022/06/21 07:30:07;;;;;;;2.97;2.67;;;20.60;61.00;;;;;;5080142;28;20055;-63
2022/06/21 07:32:45;;;;;;;2.58;2.38;;;20.60;61.00;;;;;;5082694;28;20098;-62
2022/06/21 07:35:21;;;;;;;3.10;2.80;;;20.60;61.00;;;;;;5082710;28;20148;-63
2022/06/21 07:37:56;;;;;;;2.45;2.25;;;20.60;61.10;;;;;;5083487;28;20044;-63
2022/06/21 07:40:31;;;;;;;2.40;2.20;;;20.60;61.20;;;;;;5081633;28;20481;-63
2022/06/21 07:43:23;;;;;;;2.38;2.17;;;20.50;60.90;;;;;;5080666;28;20051;-63
2022/06/21 07:46:00;;;;;;;2.10;2.00;;;20.50;61.30;;;;;;5077037;28;20328;-63
2022/06/21 07:48:45;;;;;;;5.88;2.15;;;20.50;61.30;;;;;;5088051;28;20124;-63
2022/06/21 07:51:20;;;;;;;1.75;1.63;;;20.50;61.20;;;;;;5083867;28;20048;-63
2022/06/21 07:53:53;;;;;;;2.85;2.10;;;20.50;61.20;;;;;;5088457;28;20074;-63
2022/06/21 07:56:28;;;;;;;5.50;2.67;;;20.50;61.40;;;;;;5084473;28;20480;-63
2022/06/21 07:59:02;;;;;;;2.50;2.28;;;20.50;61.50;;;;;;5084351;28;20058;-63
2022/06/21 08:07:33;;;;;;;2.45;2.22;;;20.50;61.60;;;;;;5086520;28;20074;-62
2022/06/21 08:10:09;;;;;;;2.17;2.08;;;20.50;61.50;;;;;;5085300;28;20447;-62
2022/06/21 08:12:36;;;;;;;3.08;1.85;;;20.60;61.20;;;;;;5086835;28;20322;-63
2022/06/21 08:15:04;;;;;;;3.17;1.95;;;20.60;61.50;;;;;;5086480;28;20124;-63
2022/06/21 08:17:47;;;;;;;2.45;2.05;;;20.60;61.50;;;;;;5088153;28;20081;-62
2022/06/21 08:20:25;;;;;;;2.67;1.85;;;20.60;61.30;;;;;;5083492;28;20488;-62
2022/06/21 08:23:23;;;;;;;2.45;2.25;;;20.60;61.20;;;;;;5090851;28;20051;-63
2022/06/21 08:26:01;;;;;;;3.60;1.60;;;20.60;61.20;;;;;;5099259;28;20508;-64
2022/06/21 08:28:40;;;;;;;1.88;1.77;;;20.60;61.20;;;;;;5085262;28;20101;-64
2022/06/21 08:31:28;;;;;;;1.45;1.42;;;20.60;61.00;;;;;;5089094;28;20040;-63
2022/06/21 08:34:23;;;;;;;1.42;1.38;;;20.60;60.70;;;;;;5095211;28;20445;-64
2022/06/21 08:36:55;;;;;;;1.73;1.63;;;20.60;60.90;;;;;;5089780;28;20052;-63
2022/06/21 08:39:40;;;;;;;2.25;2.00;;;20.60;60.80;;;;;;5084510;28;20044;-64
2022/06/21 08:42:37;;;;;;;3.85;1.90;;;20.60;60.70;;;;;;5096339;28;20075;-64
2022/06/21 08:45:41;;;;;;;3.05;1.85;;;20.60;60.70;;;;;;5090504;27;20098;-64
2022/06/21 08:48:48;;;;;;;1.48;1.40;;;20.60;60.70;;;;;;5091298;28;20438;-63
2022/06/21 08:51:55;;;;;;;1.90;1.80;;;20.60;60.70;;;;;;5095612;28;20092;-63
2022/06/21 08:54:45;;;;;;;1.58;1.48;;;20.70;60.80;;;;;;5092061;28;20067;-63
2022/06/21 08:57:41;;;;;;;2.85;1.85;;;20.60;61.10;;;;;;5093195;28;20044;-64
2022/06/21 09:00:42;;;;;;;1.50;1.40;;;20.60;61.10;;;;;;5094233;28;20040;-63
2022/06/21 09:03:22;;;;;;;;;;;20.70;61.00;;;;;;5096544;28;20058;-63
2022/06/21 09:06:34;;;;;;;1.80;1.70;;;20.60;60.90;;;;;;5094182;28;20356;-64
2022/06/21 09:09:29;;;;;;;2.58;1.63;;;20.60;60.80;;;;;;5087813;28;20048;-63
2022/06/21 09:12:29;;;;;;;3.55;1.42;;;20.60;60.70;;;;;;5093697;27;20040;-65
2022/06/21 09:15:23;;;;;;;3.22;1.67;;;20.60;60.40;;;;;;5094620;28;20071;-64
2022/06/21 09:18:29;;;;;;;2.67;2.13;;;20.60;60.50;;;;;;5091226;28;20097;-63
2022/06/21 09:21:25;;;;;;;1.80;1.48;;;20.60;60.70;;;;;;5087590;28;20511;-63
2022/06/21 09:24:06;;;;;;;3.50;1.90;;;20.60;60.90;;;;;;5092749;28;20113;-63
2022/06/21 09:27:04;;;;;;;1.85;1.75;;;20.60;61.00;;;;;;5092177;28;20097;-64
2022/06/21 09:30:01;;;;;;;2.15;1.67;;;20.60;60.80;;;;;;5090982;28;20044;-65
2022/06/21 09:32:51;;;;;;;4.55;1.60;;;20.60;61.00;;;;;;5096872;28;20044;-64
2022/06/21 09:35:58;;;;;;;1.67;1.58;;;20.60;60.90;;;;;;5096391;27;20063;-65
2022/06/21 09:38:54;;;;;;;1.92;1.65;;;20.60;60.70;;;;;;5090213;28;20044;-65
2022/06/21 09:41:57;;;;;;;1.85;1.67;;;20.60;60.50;;;;;;5092311;28;21440;-68
2022/06/21 09:44:49;;;;;;;1.70;1.60;;;20.60;60.30;;;;;;5088936;27;20499;-64
2022/06/21 09:47:50;;;;;;;2.20;1.67;;;20.60;60.40;;;;;;5085589;28;20059;-64
2022/06/21 09:50:31;;;;;;;2.20;1.77;;;20.70;60.40;;;;;;5090048;28;20499;-66
2022/06/21 09:53:31;;;;;;;1.45;1.42;;;20.60;60.40;;;;;;5077487;28;20383;-64
2022/06/21 09:56:16;;;;;;;1.90;1.80;;;20.60;60.50;;;;;;5084493;28;20449;-64
2022/06/21 09:58:58;;;;;;;1.60;1.50;;;20.70;60.60;;;;;;5090922;28;20443;-64
2022/06/21 10:01:47;;;;;;;1.73;1.63;;;20.60;60.50;;;;;;5087024;28;20056;-65
2022/06/21 10:04:52;;;;;;;1.60;1.55;;;20.60;60.40;;;;;;5093027;28;20047;-65
2022/06/21 10:07:45;;;;;;;1.60;1.48;;;20.60;60.20;;;;;;5094801;28;20052;-65
2022/06/21 10:10:48;;;;;;;1.73;1.63;;;20.70;60.20;;;;;;5092773;28;20052;-65
2022/06/21 10:13:38;;;;;;;2.72;1.88;;;20.70;60.10;;;;;;5085040;28;20238;-65
2022/06/21 10:16:26;;;;;;;1.60;1.42;;;20.70;60.00;;;;;;5090726;28;20040;-65
2022/06/21 10:19:18;;;;;;;1.63;1.52;;;20.70;60.40;;;;;;5084685;28;20078;-65
2022/06/21 10:22:15;;;;;;;2.45;1.40;;;20.60;60.40;;;;;;5088983;28;20520;-66
2022/06/21 10:25:18;;;;;;;1.80;1.70;;;20.70;59.80;;;;;;5088632;28;20054;-66
2022/06/21 10:28:08;;;;;;;1.67;1.58;;;20.70;59.40;;;;;;5090742;28;20111;-66
2022/06/21 10:31:15;;;;;;;1.77;1.38;;;20.60;59.00;;;;;;5094051;28;20086;-66
2022/06/21 10:34:14;;;;;;;2.42;1.48;;;20.60;58.80;;;;;;5097011;28;20405;-65
2022/06/21 10:37:08;;;;;;;4.90;1.50;;;20.50;58.50;;;;;;5097681;28;20043;-65
2022/06/21 10:40:02;;;;;;;1.42;1.40;;;20.40;58.30;;;;;;5095841;27;20397;-65
2022/06/21 10:42:47;;;;;;;1.60;1.50;;;20.30;58.70;;;;;;5086551;28;20108;-65
2022/06/21 10:45:47;;;;;;;1.90;1.58;;;20.30;58.20;;;;;;5087541;28;20131;-64
2022/06/21 10:48:54;;;;;;;2.47;2.25;;;20.20;57.80;;;;;;5087145;28;20100;-65
2022/06/21 10:51:53;;;;;;;1.98;1.88;;;20.10;57.60;;;;;;5088427;28;20040;-63
2022/06/21 10:54:47;;;;;;;1.27;1.17;;;20.00;58.00;;;;;;5090216;27;20051;-66
2022/06/21 10:57:44;;;;;;;1.70;1.60;;;19.90;57.70;;;;;;5085089;28;20113;-64
2022/06/21 11:03:38;;;;;;;2.33;1.55;;;19.80;58.30;;;;;;5086157;28;20058;-65
2022/06/21 11:06:27;;;;;;;1.33;1.25;;;19.70;58.20;;;;;;5089252;28;20097;-63
2022/06/21 11:09:14;;;;;;;1.75;1.60;;;19.70;58.50;;;;;;5083469;28;20152;-65
2022/06/21 11:15:33;;;;;;;2.13;1.55;;;19.70;58.70;;;;;;5087756;28;20036;-64
2022/06/21 11:18:26;;;;;;;1.85;1.75;;;19.70;58.70;;;;;;5087236;28;20047;-65
2022/06/21 11:21:32;;;;;;;1.50;1.40;;;19.70;58.70;;;;;;5087389;28;20048;-65
2022/06/21 11:24:25;;;;;;;7.60;1.60;;;19.60;58.80;;;;;;5093443;28;20040;-65
2022/06/21 11:27:24;;;;;;;1.75;1.55;;;19.60;58.90;;;;;;5070514;28;20058;-66
2022/06/21 11:30:17;;;;;;;3.30;1.65;;;19.60;58.80;;;;;;5087324;28;20464;-64
2022/06/21 11:33:24;;;;;;;2.50;1.40;;;19.50;58.70;;;;;;5082660;28;20507;-64
2022/06/21 11:36:06;;;;;;;1.85;1.75;;;19.50;59.60;;;;;;5084586;28;20127;-64
2022/06/21 11:39:02;;;;;;;1.60;1.48;;;19.50;58.90;;;;;;5082380;28;20109;-65
2022/06/21 11:42:10;;;;;;;1.77;1.60;;;19.50;59.00;;;;;;5086340;28;20036;-64
2022/06/21 11:45:08;;;;;;;1.25;1.17;;;19.60;59.20;;;;;;5088796;28;20056;-64
2022/06/21 11:48:07;;;;;;;1.13;1.13;;;19.60;59.30;;;;;;5076247;28;20051;-64
2022/06/21 11:50:52;;;;;;;2.50;1.50;;;19.60;60.00;;;;;;5090627;28;20549;-62
2022/06/21 11:53:47;;;;;;;1.58;1.50;;;19.60;59.40;;;;;;5087724;28;20115;-62
2022/06/21 11:56:28;;;;;;;1.60;1.50;;;19.60;59.40;;;;;;5094213;28;20439;-61
2022/06/21 11:59:24;;;;;;;1.75;1.27;;;19.60;59.50;;;;;;5084207;28;20538;-62
2022/06/21 12:02:21;;;;;;;6.55;1.70;;;19.60;59.20;;;;;;5083895;28;20160;-63
2022/06/21 12:05:22;;;;;;;1.58;1.33;;;19.60;58.90;;;;;;5092778;28;20590;-64
2022/06/21 12:08:02;;;;;;;2.73;1.83;;;19.60;58.90;;;;;;5081513;28;20043;-64
2022/06/21 12:10:50;;;;;;;2.33;2.10;;;19.60;59.30;;;;;;5084691;28;20695;-63
2022/06/21 12:13:57;;;;;;;3.08;1.23;;;19.60;59.40;;;;;;5082387;28;20055;-63
2022/06/21 12:16:52;;;;;;;1.80;1.70;;;19.60;59.50;;;;;;5087466;28;20051;-63
2022/06/21 12:19:30;;;;;;;2.33;1.50;;;19.50;59.90;;;;;;5089304;28;20105;-63
2022/06/21 12:22:24;;;;;;;1.30;1.30;;;19.60;60.20;;;;;;5072871;28;20904;-64
2022/06/21 12:24:52;;;;;;;1.88;1.55;;;19.60;60.20;;;;;;5082719;28;20071;-64
2022/06/21 12:27:21;;;;;;;1.60;1.50;;;19.70;60.40;;;;;;5079497;28;20048;-63
2022/06/21 12:29:48;;;;;;;2.38;1.70;;;19.70;60.30;;;;;;5092120;28;20056;-65
2022/06/21 12:32:23;;;;;;;1.25;1.20;;;19.80;60.40;;;;;;5091483;28;20052;-65
2022/06/21 12:35:18;;;;;;;1.67;1.58;;;19.80;60.50;;;;;;5094678;28;20075;-63
2022/06/21 12:37:55;;;;;;;2.25;1.77;;;19.90;60.40;;;;;;5087808;28;20448;-64
2022/06/21 12:40:39;;;;;;;2.17;1.75;;;19.90;60.50;;;;;;5099189;27;20039;-65
2022/06/21 12:43:33;;;;;;;2.20;2.00;;;20.00;60.50;;;;;;5077737;28;20044;-65
2022/06/21 12:46:17;;;;;;;2.63;2.00;;;20.10;60.80;;;;;;5088551;28;21431;-63
2022/06/21 12:49:19;;;;;;;4.03;1.80;;;20.10;61.50;;;;;;5094137;28;20044;-63
2022/06/21 12:52:07;;;;;;;2.70;1.83;;;20.20;61.20;;;;;;5088706;28;20097;-64
2022/06/21 12:54:59;;;;;;;4.13;2.50;;;20.20;61.30;;;;;;5099668;27;20047;-64
2022/06/21 12:58:03;;;;;;;3.90;2.13;;;20.30;61.60;;;;;;5093391;28;20108;-63
2022/06/21 13:00:53;;;;;;;1.75;1.65;;;20.40;62.60;;;;;;5095241;28;20078;-63
2022/06/21 13:03:49;;;;;;;1.73;1.63;;;20.50;62.00;;;;;;5084228;28;20185;-63
2022/06/21 13:06:45;;;;;;;2.60;1.85;;;20.50;61.90;;;;;;5091761;28;20046;-64
2022/06/21 13:09:34;;;;;;;2.05;1.85;;;20.60;62.00;;;;;;5088593;28;20055;-63
2022/06/21 13:12:33;;;;;;;3.08;1.80;;;20.70;61.90;;;;;;5090088;28;20488;-63
2022/06/21 13:15:32;;;;;;;2.85;2.17;;;20.70;61.80;;;;;;5087419;28;20071;-65
2022/06/21 13:18:20;;;;;;;2.28;2.05;;;20.80;61.70;;;;;;5087024;28;20043;-65
2022/06/21 13:21:05;;;;;;;3.33;2.05;;;20.80;61.50;;;;;;5086793;27;20113;-64
2022/06/21 13:24:03;;;;;;;2.67;2.25;;;20.90;61.20;;;;;;5086826;28;20451;-63
2022/06/21 13:26:59;;;;;;;3.60;2.33;;;20.90;61.10;;;;;;5090008;28;20048;-63
2022/06/21 13:29:47;;;;;;;2.60;2.33;;;21.00;61.10;;;;;;5088235;28;20058;-63
2022/06/21 13:32:21;;;;;;;3.95;1.90;;;21.00;61.10;;;;;;5091078;28;20050;-65
2022/06/21 13:35:12;;;;;;;2.40;2.20;;;21.00;60.90;;;;;;5086418;28;20040;-65
2022/06/21 13:37:47;;;;;;;2.85;2.53;;;21.10;61.00;;;;;;5090597;28;20084;-62
2022/06/21 13:40:25;;;;;;;2.38;2.17;;;21.10;61.30;;;;;;5090647;28;20044;-61
2022/06/21 13:43:11;;;;;;;2.45;2.25;;;21.10;61.00;;;;;;5085796;28;20096;-64
2022/06/21 13:46:14;;;;;;;2.75;2.17;;;21.20;60.90;;;;;;5090947;28;20052;-63
2022/06/21 13:48:51;;;;;;;2.58;2.30;;;21.20;60.70;;;;;;5091591;28;20043;-64
2022/06/21 13:51:30;;;;;;;5.68;2.72;;;21.20;60.70;;;;;;5085436;28;20051;-62
2022/06/21 13:54:28;;;;;;;3.95;2.58;;;21.20;60.50;;;;;;5080154;28;20051;-62
2022/06/21 13:57:13;;;;;;;2.67;2.00;;;21.20;60.50;;;;;;5085474;28;20048;-63
2022/06/21 13:59:50;;;;;;;2.88;2.10;;;21.20;60.50;;;;;;5085151;28;20078;-64
2022/06/21 14:02:41;;;;;;;3.03;2.45;;;21.20;60.30;;;;;;5084834;28;20429;-64
2022/06/21 14:05:24;;;;;;;2.30;2.10;;;21.20;60.30;;;;;;5087046;28;20621;-64
2022/06/21 14:08:05;;;;;;;2.78;2.13;;;21.10;60.10;;;;;;5082982;28;20581;-63
2022/06/21 14:10:51;;;;;;;2.33;2.20;;;21.10;60.00;;;;;;5092282;27;20104;-64
2022/06/21 14:13:29;;;;;;;2.20;2.00;;;21.10;60.00;;;;;;5090933;28;20075;-65
2022/06/21 14:16:16;;;;;;;2.00;1.90;;;21.10;59.90;;;;;;5088354;28;21500;-64
2022/06/21 14:19:18;;;;;;;2.75;2.08;;;21.10;59.80;;;;;;5088671;28;20066;-65
2022/06/21 14:21:58;;;;;;;2.28;1.98;;;21.10;59.70;;;;;;5085284;28;20447;-63
2022/06/21 14:24:38;;;;;;;2.50;2.17;;;21.10;59.60;;;;;;5098490;28;20047;-62
2022/06/21 14:27:20;;;;;;;2.83;2.10;;;21.10;59.60;;;;;;5087984;28;20294;-63